Time;durP1;ratioP1;P1;durP2;ratioP2;P2;SDS_P1;SDS_P2;PMS_P1;PMS_P2;Temp;Humidity;BMP_temperature;BMP_pressure;BME280_temperature;BME280_humidity;BME280_pressure;Samples;Min_cycle;Max_cycle;Signal;HPM_P1;HPM_P2
2022/01/19 00:00:16;;;;;;;20.27;8.30;;;4.60;1.00;;;;;;5091654;28;20200;-75
2022/01/19 00:02:42;;;;;;;12.53;7.67;;;4.70;1.00;;;;;;5055718;28;20221;-75
2022/01/19 00:05:09;;;;;;;10.77;7.43;;;4.70;1.00;;;;;;5073955;28;20420;-75
2022/01/19 00:07:35;;;;;;;15.40;8.90;;;4.70;1.00;;;;;;5073459;28;20182;-74
2022/01/19 00:10:05;;;;;;;19.33;10.77;;;4.60;1.00;;;;;;5073043;28;20400;-76
2022/01/19 00:12:32;;;;;;;15.87;8.17;;;4.60;1.00;;;;;;5093561;28;20411;-76
2022/01/19 00:14:58;;;;;;;17.93;7.70;;;4.70;1.00;;;;;;5093578;28;20792;-76
2022/01/19 00:17:23;;;;;;;15.57;7.60;;;4.70;1.00;;;;;;5093044;28;20415;-75
2022/01/19 00:19:49;;;;;;;19.00;8.30;;;4.70;1.00;;;;;;5092653;28;20450;-75
2022/01/19 00:22:15;;;;;;;20.17;9.20;;;4.70;1.00;;;;;;5075246;28;20206;-75
2022/01/19 00:24:41;;;;;;;14.70;8.23;;;4.70;1.00;;;;;;5085382;28;20207;-76
2022/01/19 00:27:07;;;;;;;8.93;6.97;;;4.70;1.00;;;;;;5090722;28;20231;-76
2022/01/19 00:29:32;;;;;;;18.73;9.37;;;4.70;1.00;;;;;;5092612;28;20420;-75
2022/01/19 00:31:58;;;;;;;17.87;8.57;;;4.70;1.00;;;;;;5078737;28;20449;-76
2022/01/19 00:34:24;;;;;;;13.03;7.87;;;4.70;1.00;;;;;;5073305;28;20209;-76
2022/01/19 00:36:50;;;;;;;14.67;9.17;;;4.70;1.00;;;;;;5089046;28;20192;-75
2022/01/19 00:39:15;;;;;;;15.67;9.50;;;4.70;1.00;;;;;;5091611;28;20174;-76
2022/01/19 00:41:41;;;;;;;16.33;8.60;;;4.80;1.00;;;;;;5073274;28;20202;-77
2022/01/19 00:44:06;;;;;;;12.00;7.77;;;4.70;1.00;;;;;;5072594;28;20535;-75
2022/01/19 00:46:32;;;;;;;25.13;9.20;;;4.70;1.00;;;;;;5091843;28;20187;-76
2022/01/19 00:48:58;;;;;;;14.10;7.27;;;4.70;1.00;;;;;;5074123;28;20177;-75
2022/01/19 00:51:23;;;;;;;16.20;8.77;;;4.70;1.00;;;;;;5092138;28;20193;-76
2022/01/19 00:53:49;;;;;;;13.57;8.90;;;4.70;1.00;;;;;;5075157;28;20170;-75
2022/01/19 00:56:14;;;;;;;15.03;8.57;;;4.60;1.00;;;;;;5077659;28;20547;-75
2022/01/19 00:58:40;;;;;;;12.87;8.03;;;4.60;1.00;;;;;;5053706;28;20228;-75
2022/01/19 01:01:06;;;;;;;28.13;10.20;;;4.50;1.00;;;;;;5084402;28;20204;-75
2022/01/19 01:03:31;;;;;;;23.50;11.60;;;4.50;1.00;;;;;;5074897;28;20201;-75
2022/01/19 01:05:57;;;;;;;15.50;7.80;;;4.50;1.00;;;;;;5092197;28;20180;-74
2022/01/19 01:08:23;;;;;;;11.17;8.80;;;4.50;1.00;;;;;;5092813;28;20224;-75
2022/01/19 01:10:49;;;;;;;23.30;12.00;;;4.50;1.00;;;;;;5064310;28;20197;-75
2022/01/19 01:15:23;;;;;;;21.33;9.93;;;4.50;1.00;;;;;;5072722;28;20240;-75
2022/01/19 01:16:17;;;;;;;14.23;8.23;;;4.50;1.00;;;;;;5087333;28;20458;-74
2022/01/19 01:18:43;;;;;;;27.83;10.33;;;4.50;1.00;;;;;;5091673;28;20419;-75
2022/01/19 01:21:08;;;;;;;15.73;9.03;;;4.50;1.00;;;;;;5091816;28;20449;-75
2022/01/19 01:23:35;;;;;;;25.07;9.40;;;4.50;1.00;;;;;;5092715;28;20205;-75
2022/01/19 01:26:07;;;;;;;20.23;9.17;;;4.40;1.00;;;;;;5083232;28;20166;-75
2022/01/19 01:28:32;;;;;;;28.03;10.57;;;4.50;1.00;;;;;;5071755;28;20407;-74
2022/01/19 01:30:58;;;;;;;18.93;9.43;;;4.50;1.00;;;;;;5080656;28;20439;-74
2022/01/19 01:33:24;;;;;;;16.23;10.33;;;4.50;1.00;;;;;;5092412;28;20174;-75
2022/01/19 01:35:50;;;;;;;21.33;9.40;;;4.60;1.00;;;;;;5091313;28;20649;-74
2022/01/19 01:38:15;;;;;;;20.23;11.83;;;4.60;1.00;;;;;;5092589;28;20664;-75
2022/01/19 01:40:41;;;;;;;16.57;12.50;;;4.60;1.00;;;;;;5090920;28;20443;-74
2022/01/19 01:43:09;;;;;;;16.07;9.90;;;4.60;1.00;;;;;;5092631;28;20193;-75
2022/01/19 01:45:39;;;;;;;19.80;11.33;;;4.60;1.00;;;;;;5089442;28;20190;-74
2022/01/19 01:48:09;;;;;;;16.33;9.90;;;4.60;1.00;;;;;;5072491;28;20457;-75
2022/01/19 01:53:26;;;;;;;20.73;10.87;;;4.60;1.00;;;;;;5092460;28;20422;-75
2022/01/19 01:56:03;;;;;;;24.90;10.83;;;4.60;1.00;;;;;;5083360;28;20456;-75
2022/01/19 01:58:31;;;;;;;11.87;8.80;;;4.50;1.00;;;;;;5086951;28;20494;-77
2022/01/19 02:00:57;;;;;;;17.27;9.93;;;4.50;1.00;;;;;;5073512;28;20442;-74
2022/01/19 02:03:24;;;;;;;21.27;12.37;;;4.40;1.00;;;;;;5095745;28;20443;-74
2022/01/19 02:06:45;;;;;;;19.10;9.70;;;4.40;1.00;;;;;;5095056;28;20192;-75
2022/01/19 02:08:43;;;;;;;21.40;9.87;;;4.40;1.00;;;;;;5087535;28;20466;-75
2022/01/19 02:16:32;;;;;;;19.73;9.97;;;4.40;1.00;;;;;;5083282;28;20810;-74
2022/01/19 02:21:56;;;;;;;13.70;9.30;;;4.40;1.00;;;;;;5076149;28;20498;-73
2022/01/19 02:24:22;;;;;;;15.37;8.20;;;4.40;1.00;;;;;;5095741;28;20407;-75
2022/01/19 02:50:57;;;;;;;32.27;10.87;;;4.50;1.00;;;;;;5095194;28;20429;-74
2022/01/19 02:53:23;;;;;;;16.77;9.00;;;4.50;1.00;;;;;;5082847;28;20499;-74
2022/01/19 02:55:49;;;;;;;14.47;9.20;;;4.50;1.00;;;;;;5080108;28;20185;-74
2022/01/19 02:58:18;;;;;;;19.40;8.83;;;4.50;1.00;;;;;;5095068;28;20685;-76
2022/01/19 03:08:57;;;;;;;25.80;8.80;;;4.40;1.00;;;;;;5093960;28;20898;-75
2022/01/19 03:11:24;;;;;;;10.57;8.20;;;4.40;1.00;;;;;;5084722;28;20538;-75
2022/01/19 03:13:50;;;;;;;13.53;8.33;;;4.50;1.00;;;;;;5073956;28;20447;-75
2022/01/19 03:16:20;;;;;;;20.07;9.20;;;4.40;1.00;;;;;;5093758;28;20466;-75
2022/01/19 03:18:49;;;;;;;22.73;10.97;;;4.40;1.00;;;;;;5093459;28;20411;-75
2022/01/19 03:21:17;;;;;;;22.80;9.53;;;4.40;1.00;;;;;;5093644;28;20493;-74
2022/01/19 03:23:43;;;;;;;21.57;11.00;;;4.40;1.00;;;;;;5094127;28;20550;-75
2022/01/19 03:26:09;;;;;;;17.53;8.90;;;4.40;1.00;;;;;;5093949;28;20422;-75
2022/01/19 03:28:35;;;;;;;19.20;7.37;;;4.40;1.00;;;;;;5093485;28;20490;-75
2022/01/19 03:31:02;;;;;;;25.53;11.50;;;4.40;1.00;;;;;;5092351;28;20277;-75
2022/01/19 03:33:27;;;;;;;19.60;10.67;;;4.50;1.00;;;;;;5094280;28;20415;-75
2022/01/19 03:35:53;;;;;;;32.33;9.73;;;4.50;1.00;;;;;;5093592;28;20966;-75
2022/01/19 03:38:19;;;;;;;14.53;8.83;;;4.40;1.00;;;;;;5094519;28;20182;-75
2022/01/19 03:40:45;;;;;;;22.53;10.70;;;4.40;1.00;;;;;;5084236;28;20498;-74
2022/01/19 03:43:11;;;;;;;19.70;9.27;;;4.30;1.00;;;;;;5092883;28;20201;-75
2022/01/19 03:45:37;;;;;;;20.90;9.80;;;4.40;1.00;;;;;;5093554;28;20197;-75
2022/01/19 03:50:41;;;;;;;24.43;11.10;;;4.30;1.00;;;;;;5085251;28;20450;-75
2022/01/19 03:53:07;;;;;;;21.13;8.67;;;4.30;1.00;;;;;;5092625;28;20469;-75
2022/01/19 03:55:33;;;;;;;22.33;10.33;;;4.30;1.00;;;;;;5093444;28;20173;-74
2022/01/19 03:57:58;;;;;;;21.93;11.90;;;4.30;1.00;;;;;;5093972;28;20171;-75
2022/01/19 04:00:24;;;;;;;16.37;10.10;;;4.40;1.00;;;;;;5089085;28;20597;-75
2022/01/19 04:02:50;;;;;;;23.50;8.70;;;4.30;1.00;;;;;;5055506;28;20209;-75
2022/01/19 04:05:22;;;;;;;15.90;9.23;;;4.30;1.00;;;;;;5089007;28;20173;-75
2022/01/19 04:07:48;;;;;;;13.80;7.27;;;4.20;1.00;;;;;;5093476;28;20170;-75
2022/01/19 04:10:14;;;;;;;20.80;9.80;;;4.20;1.00;;;;;;5091660;28;20447;-74
2022/01/19 04:15:09;;;;;;;18.00;8.87;;;4.00;1.00;;;;;;5083387;28;20181;-75
2022/01/19 04:17:36;;;;;;;21.30;8.80;;;4.00;1.00;;;;;;5093774;28;20470;-74
2022/01/19 04:20:02;;;;;;;15.90;8.40;;;4.00;1.00;;;;;;5091553;28;20847;-74
2022/01/19 04:22:28;;;;;;;20.10;9.00;;;4.00;1.00;;;;;;5093443;28;20447;-75
2022/01/19 04:24:54;;;;;;;16.20;8.23;;;4.10;1.00;;;;;;5080819;28;20424;-75
2022/01/19 04:30:03;;;;;;;25.00;10.43;;;4.10;1.00;;;;;;5091240;28;20177;-75
2022/01/19 04:34:59;;;;;;;15.20;8.47;;;4.00;1.00;;;;;;5075511;28;20412;-75
2022/01/19 04:38:00;;;;;;;18.77;9.60;;;3.90;1.00;;;;;;5073076;28;20404;-74
2022/01/19 04:44:05;;;;;;;17.87;8.43;;;4.00;1.00;;;;;;5092435;28;20455;-75
2022/01/19 04:46:08;;;;;;;12.27;6.67;;;4.00;1.00;;;;;;5067220;28;20905;-74
2022/01/19 05:08:33;;;;;;;16.70;8.67;;;3.90;1.00;;;;;;5092565;28;20399;-75
2022/01/19 05:15:22;;;;;;;22.23;9.00;;;3.90;1.00;;;;;;5076105;28;20257;-75
2022/01/19 05:17:48;;;;;;;21.47;9.60;;;3.90;1.00;;;;;;5091403;28;20847;-74
2022/01/19 05:20:13;;;;;;;17.10;7.57;;;3.80;1.00;;;;;;5091297;28;20189;-74
2022/01/19 05:22:39;;;;;;;18.77;9.43;;;3.80;1.00;;;;;;5092527;28;20543;-75
2022/01/19 05:25:05;;;;;;;9.17;4.80;;;3.80;1.00;;;;;;5091923;28;20192;-75
2022/01/19 05:27:31;;;;;;;16.37;8.10;;;3.80;1.00;;;;;;5092162;28;20170;-74
2022/01/19 05:29:57;;;;;;;18.03;9.80;;;3.80;1.00;;;;;;5063884;28;20412;-75
2022/01/19 05:32:23;;;;;;;14.37;8.20;;;3.80;1.00;;;;;;5092722;28;20490;-74
2022/01/19 05:34:49;;;;;;;16.77;9.53;;;3.80;1.00;;;;;;5091724;28;20200;-74
2022/01/19 05:37:14;;;;;;;10.33;7.80;;;3.80;1.00;;;;;;5094408;28;20423;-75
2022/01/19 05:39:40;;;;;;;22.90;9.90;;;3.80;1.00;;;;;;5083875;28;20831;-75
2022/01/19 05:42:13;;;;;;;24.10;9.17;;;3.80;1.00;;;;;;5094726;28;20736;-74
2022/01/19 05:44:40;;;;;;;13.90;7.93;;;3.90;1.00;;;;;;5095786;28;20411;-74
2022/01/19 05:47:06;;;;;;;21.17;9.73;;;3.90;1.00;;;;;;5095993;28;20877;-75
2022/01/19 05:49:31;;;;;;;21.23;10.83;;;4.00;1.00;;;;;;5081953;28;20412;-75
2022/01/19 05:51:57;;;;;;;17.03;9.30;;;4.10;1.00;;;;;;5092077;28;20436;-74
2022/01/19 05:54:23;;;;;;;20.33;9.10;;;4.10;1.00;;;;;;5085738;28;20190;-74
2022/01/19 05:56:50;;;;;;;21.43;8.83;;;4.10;1.00;;;;;;5075845;28;20162;-74
2022/01/19 05:59:16;;;;;;;25.50;10.60;;;3.90;1.00;;;;;;5087474;28;20418;-75
2022/01/19 06:01:42;;;;;;;21.97;9.40;;;4.00;1.00;;;;;;5095262;28;20439;-75
2022/01/19 06:04:07;;;;;;;20.00;8.93;;;4.10;1.00;;;;;;5095171;28;20170;-74
2022/01/19 06:06:33;;;;;;;16.47;9.50;;;4.10;1.00;;;;;;5095539;28;20163;-75
2022/01/19 06:09:01;;;;;;;24.47;11.80;;;4.10;1.00;;;;;;5083783;28;20185;-74
2022/01/19 06:11:27;;;;;;;16.43;8.37;;;4.10;1.00;;;;;;5093797;28;20427;-75
2022/01/19 06:13:52;;;;;;;21.23;10.07;;;4.10;1.00;;;;;;5076935;28;20469;-75
2022/01/19 06:16:18;;;;;;;18.20;10.40;;;4.10;1.00;;;;;;5095054;28;20177;-75
2022/01/19 06:18:44;;;;;;;12.60;7.27;;;4.10;1.00;;;;;;5094976;28;20449;-75
2022/01/19 06:21:10;;;;;;;15.93;9.00;;;4.10;1.00;;;;;;5085354;28;20604;-75
2022/01/19 06:23:37;;;;;;;19.30;8.40;;;4.10;1.00;;;;;;5073937;28;20731;-74
2022/01/19 06:26:03;;;;;;;16.67;8.93;;;4.20;1.00;;;;;;5083341;28;20403;-74
2022/01/19 06:28:29;;;;;;;17.60;8.90;;;4.10;1.00;;;;;;5093662;28;20412;-77
2022/01/19 06:30:55;;;;;;;15.43;9.00;;;4.10;1.00;;;;;;5076436;28;20447;-73
2022/01/19 06:33:20;;;;;;;14.67;7.43;;;4.20;1.00;;;;;;5095642;28;20165;-74
2022/01/19 06:35:46;;;;;;;15.80;9.20;;;4.10;1.00;;;;;;5094688;28;20194;-74
2022/01/19 06:38:12;;;;;;;12.03;7.10;;;4.00;1.00;;;;;;5077496;28;20202;-75
2022/01/19 06:40:37;;;;;;;15.10;8.67;;;4.00;1.00;;;;;;5090737;28;20736;-73
2022/01/19 06:43:03;;;;;;;19.53;7.20;;;3.90;1.00;;;;;;5074618;28;20190;-80
2022/01/19 06:45:29;;;;;;;31.43;9.53;;;3.90;1.00;;;;;;5085573;28;20162;-83
2022/01/19 06:47:55;;;;;;;22.70;9.80;;;3.90;1.00;;;;;;5094878;28;20170;-75
2022/01/19 06:50:22;;;;;;;22.03;10.80;;;4.00;1.00;;;;;;5092930;28;20188;-79
2022/01/19 06:52:48;;;;;;;24.90;10.53;;;4.00;1.00;;;;;;5079981;28;20534;-74
2022/01/19 06:55:15;;;;;;;23.20;10.67;;;3.90;1.00;;;;;;5076246;28;20847;-72
2022/01/19 06:57:40;;;;;;;17.47;8.67;;;3.90;1.00;;;;;;5094864;28;20443;-73
2022/01/19 07:00:07;;;;;;;20.27;10.33;;;3.90;1.00;;;;;;5092261;28;20471;-75
2022/01/19 07:02:32;;;;;;;26.53;11.40;;;3.90;1.00;;;;;;5094238;28;20964;-73
2022/01/19 07:05:00;;;;;;;26.17;10.10;;;3.90;1.00;;;;;;5093756;28;20495;-74
2022/01/19 07:07:25;;;;;;;19.70;11.37;;;3.90;1.00;;;;;;5093618;28;20173;-74
2022/01/19 07:09:51;;;;;;;29.50;11.47;;;3.90;1.00;;;;;;5074910;28;20412;-75
2022/01/19 07:12:17;;;;;;;19.33;6.67;;;3.90;1.00;;;;;;5094684;28;20416;-72
2022/01/19 07:14:43;;;;;;;27.40;13.27;;;3.90;1.00;;;;;;5094331;28;20538;-75
2022/01/19 07:17:09;;;;;;;33.40;12.37;;;3.80;1.00;;;;;;5092653;28;20692;-75
2022/01/19 07:19:35;;;;;;;24.90;11.83;;;3.80;1.00;;;;;;5092961;28;20395;-73
2022/01/19 07:22:01;;;;;;;27.37;12.40;;;3.80;1.00;;;;;;5072601;28;20815;-74
2022/01/19 07:24:26;;;;;;;20.53;9.33;;;3.90;1.00;;;;;;5094323;28;20416;-75
2022/01/19 07:26:52;;;;;;;21.53;7.67;;;3.80;1.00;;;;;;5093603;28;20414;-75
2022/01/19 07:29:18;;;;;;;24.77;12.43;;;3.90;1.00;;;;;;5093715;28;20181;-74
2022/01/19 07:31:43;;;;;;;29.73;11.90;;;3.90;1.00;;;;;;5093106;28;20198;-75
2022/01/19 07:34:09;;;;;;;17.80;10.70;;;3.90;1.00;;;;;;5094550;28;20173;-75
2022/01/19 07:36:36;;;;;;;21.50;11.03;;;3.80;1.00;;;;;;5085979;28;20542;-74
2022/01/19 07:39:02;;;;;;;26.67;11.60;;;3.90;1.00;;;;;;5093054;28;20423;-75
2022/01/19 07:41:28;;;;;;;20.73;14.07;;;3.90;1.00;;;;;;5093288;28;20454;-74
2022/01/19 07:43:53;;;;;;;35.47;14.77;;;3.90;1.00;;;;;;5094197;28;20455;-75
2022/01/19 07:46:19;;;;;;;24.80;11.17;;;3.90;1.00;;;;;;5081096;28;20173;-74
2022/01/19 07:48:45;;;;;;;24.53;11.03;;;3.90;1.00;;;;;;5092948;28;20600;-74
2022/01/19 07:51:11;;;;;;;31.17;14.90;;;3.90;1.00;;;;;;5092410;28;20277;-74
2022/01/19 07:53:37;;;;;;;25.90;12.10;;;3.90;1.00;;;;;;5092820;28;20502;-74
2022/01/19 07:56:03;;;;;;;35.10;14.00;;;3.90;1.00;;;;;;5093183;28;20658;-75
2022/01/19 07:58:29;;;;;;;36.63;13.33;;;3.90;1.00;;;;;;5091960;28;20424;-76
2022/01/19 08:00:55;;;;;;;26.87;13.63;;;3.90;1.00;;;;;;5092907;28;20477;-75
2022/01/19 08:03:21;;;;;;;38.87;12.37;;;4.00;1.00;;;;;;5093952;28;20208;-74
2022/01/19 08:05:47;;;;;;;30.73;11.77;;;4.00;1.00;;;;;;5093917;28;20170;-75
2022/01/19 08:08:12;;;;;;;34.53;14.67;;;3.90;1.00;;;;;;5093709;28;20861;-75
2022/01/19 08:10:42;;;;;;;26.40;11.90;;;4.00;1.00;;;;;;5092794;28;20216;-75
2022/01/19 08:13:08;;;;;;;23.70;9.57;;;4.00;1.00;;;;;;5093781;28;20177;-75
2022/01/19 08:15:33;;;;;;;16.87;9.43;;;4.00;1.00;;;;;;5093065;28;20407;-74
2022/01/19 08:17:59;;;;;;;17.57;8.87;;;3.90;1.00;;;;;;5093530;28;20396;-75
2022/01/19 08:20:25;;;;;;;17.93;7.83;;;3.90;1.00;;;;;;5092758;28;20189;-75
2022/01/19 08:22:50;;;;;;;23.57;10.07;;;3.90;1.00;;;;;;5093446;28;20220;-74
2022/01/19 08:25:16;;;;;;;12.37;7.80;;;3.90;1.00;;;;;;5093469;28;20636;-74
2022/01/19 08:27:42;;;;;;;16.77;9.57;;;3.90;1.00;;;;;;5093593;28;20165;-76
2022/01/19 08:30:09;;;;;;;21.07;8.77;;;3.90;1.00;;;;;;5092504;28;20919;-74
2022/01/19 08:32:35;;;;;;;13.13;7.00;;;4.00;1.00;;;;;;5093123;28;20174;-75
2022/01/19 08:35:03;;;;;;;16.20;7.20;;;4.00;1.00;;;;;;5092917;28;20498;-74
2022/01/19 08:37:28;;;;;;;20.73;8.33;;;4.00;1.00;;;;;;5092965;28;20415;-74
2022/01/19 08:39:54;;;;;;;17.80;8.30;;;4.00;1.00;;;;;;5092311;28;20411;-74
2022/01/19 08:42:20;;;;;;;10.60;7.10;;;3.90;1.00;;;;;;5093358;28;20208;-74
2022/01/19 08:44:46;;;;;;;14.77;8.17;;;4.00;1.00;;;;;;5092866;28;20672;-75
2022/01/19 08:47:12;;;;;;;25.10;8.40;;;4.00;1.00;;;;;;5093170;28;20437;-74
2022/01/19 08:49:37;;;;;;;16.33;9.37;;;4.00;1.00;;;;;;5091885;28;20196;-74
2022/01/19 08:52:04;;;;;;;23.07;10.53;;;4.00;1.00;;;;;;5092998;28;20678;-74
2022/01/19 08:54:30;;;;;;;13.00;7.17;;;4.10;1.00;;;;;;5093197;28;20177;-75
2022/01/19 08:56:57;;;;;;;17.17;8.60;;;4.10;1.00;;;;;;5093042;28;20927;-75
2022/01/19 08:59:23;;;;;;;19.63;7.90;;;4.10;1.00;;;;;;5092172;28;20434;-75
2022/01/19 09:01:48;;;;;;;18.50;8.57;;;4.10;1.00;;;;;;5092929;28;20876;-74
2022/01/19 09:04:14;;;;;;;29.20;10.17;;;4.10;1.00;;;;;;5075150;28;20169;-74
2022/01/19 09:06:40;;;;;;;31.03;10.33;;;4.10;1.00;;;;;;5092522;28;20806;-75
2022/01/19 09:09:05;;;;;;;18.23;9.10;;;4.10;1.00;;;;;;5091794;28;20190;-75
2022/01/19 09:11:31;;;;;;;14.37;8.77;;;4.10;1.00;;;;;;5095268;28;20186;-75
2022/01/19 09:13:58;;;;;;;11.60;7.60;;;4.10;1.00;;;;;;5097175;28;20625;-75
2022/01/19 09:16:23;;;;;;;30.13;10.67;;;4.00;1.00;;;;;;5097042;28;20411;-75
2022/01/19 09:18:49;;;;;;;15.47;8.63;;;4.10;1.00;;;;;;5096225;28;20406;-73
2022/01/19 09:21:15;;;;;;;23.53;10.27;;;4.10;1.00;;;;;;5096723;28;20189;-75
2022/01/19 09:23:40;;;;;;;11.30;6.67;;;4.10;1.00;;;;;;5097003;28;20212;-74
2022/01/19 09:26:06;;;;;;;22.20;9.20;;;4.10;1.00;;;;;;5096422;28;20165;-74
2022/01/19 09:28:32;;;;;;;22.50;11.50;;;4.10;1.00;;;;;;5096019;28;20201;-76
2022/01/19 09:31:00;;;;;;;28.70;11.17;;;4.10;1.00;;;;;;5096983;28;20694;-74
2022/01/19 09:33:29;;;;;;;17.07;8.87;;;4.20;1.00;;;;;;5096667;28;20396;-74
2022/01/19 09:38:29;;;;;;;27.50;9.47;;;4.10;1.00;;;;;;5096699;28;20407;-74
2022/01/19 09:40:56;;;;;;;16.63;10.40;;;4.10;1.00;;;;;;5096533;28;20460;-74
2022/01/19 09:43:23;;;;;;;19.83;9.67;;;4.20;1.00;;;;;;5096332;28;20506;-74
2022/01/19 09:45:57;;;;;;;23.90;10.37;;;4.20;1.00;;;;;;5095891;28;20741;-75
2022/01/19 09:48:24;;;;;;;28.93;11.53;;;4.20;1.00;;;;;;5096329;28;20520;-74
2022/01/19 09:50:51;;;;;;;20.57;9.63;;;4.10;1.00;;;;;;5094179;28;20792;-73
2022/01/19 09:53:18;;;;;;;22.47;11.40;;;4.10;1.00;;;;;;5096294;28;20407;-75
2022/01/19 09:55:45;;;;;;;17.90;7.20;;;4.10;1.00;;;;;;5096260;28;20411;-74
2022/01/19 09:58:11;;;;;;;29.93;12.20;;;4.10;1.00;;;;;;5096441;28;20407;-71
2022/01/19 10:00:37;;;;;;;19.67;11.73;;;4.10;1.00;;;;;;5095167;28;20427;-76
2022/01/19 10:03:18;;;;;;;21.10;11.03;;;4.10;1.00;;;;;;5095597;28;20212;-74
2022/01/19 10:06:03;;;;;;;21.20;10.27;;;4.10;1.00;;;;;;5084578;28;20434;-75
2022/01/19 10:08:40;;;;;;;24.27;10.97;;;4.10;1.00;;;;;;5089586;28;20510;-78
2022/01/19 10:16:59;;;;;;;27.33;10.00;;;4.20;1.00;;;;;;5067203;28;20439;-74
2022/01/19 10:19:35;;;;;;;32.00;14.73;;;4.30;1.00;;;;;;5080289;28;20424;-74
2022/01/19 10:22:27;;;;;;;31.77;14.07;;;4.30;1.00;;;;;;5081956;28;20559;-75
2022/01/19 10:24:55;;;;;;;41.13;12.87;;;4.40;1.00;;;;;;5074986;28;20413;-74
2022/01/19 10:27:21;;;;;;;30.67;14.03;;;4.50;1.00;;;;;;5082467;28;20524;-75
2022/01/19 10:29:53;;;;;;;25.33;8.93;;;4.50;1.00;;;;;;5092839;28;20534;-75
2022/01/19 10:32:25;;;;;;;20.50;10.97;;;4.60;1.00;;;;;;5088317;28;20232;-73
2022/01/19 10:34:53;;;;;;;23.67;12.17;;;4.90;1.00;;;;;;5078103;28;20435;-74
2022/01/19 10:37:27;;;;;;;28.30;12.73;;;4.80;1.00;;;;;;5083003;28;20934;-75
2022/01/19 10:39:57;;;;;;;16.33;9.70;;;4.80;1.00;;;;;;5075673;28;20427;-74
2022/01/19 10:42:26;;;;;;;35.67;12.80;;;4.90;1.00;;;;;;5074518;28;20520;-75
2022/01/19 10:44:59;;;;;;;30.80;13.57;;;4.90;1.00;;;;;;5093123;28;20421;-74
2022/01/19 10:47:53;;;;;;;32.63;12.43;;;4.80;1.00;;;;;;5091403;28;20425;-74
2022/01/19 10:50:30;;;;;;;27.20;13.50;;;4.80;1.00;;;;;;5074142;28;20587;-74
2022/01/19 10:53:05;;;;;;;26.60;16.10;;;4.80;1.00;;;;;;5074611;28;20431;-74
2022/01/19 10:55:42;;;;;;;27.93;13.57;;;4.80;1.00;;;;;;5091524;28;20498;-75
2022/01/19 10:58:13;;;;;;;30.43;13.43;;;4.90;1.00;;;;;;5074865;28;20397;-74
2022/01/19 11:00:47;;;;;;;28.57;13.63;;;4.90;99.90;;;;;;5079504;28;20458;-76
2022/01/19 11:03:26;;;;;;;33.10;15.10;;;4.90;99.90;;;;;;5075694;28;20474;-74
2022/01/19 11:05:54;;;;;;;22.07;14.17;;;4.90;99.90;;;;;;5089993;28;20473;-73
2022/01/19 11:08:22;;;;;;;38.20;15.23;;;4.90;99.90;;;;;;5092975;28;20449;-74
2022/01/19 11:10:49;;;;;;;40.80;14.30;;;5.00;99.90;;;;;;5093249;28;20470;-74
2022/01/19 11:13:28;;;;;;;35.20;16.90;;;5.00;99.90;;;;;;5091738;28;20518;-74
2022/01/19 11:15:55;;;;;;;29.23;14.60;;;5.10;99.90;;;;;;5094682;28;20399;-74
2022/01/19 11:18:22;;;;;;;28.00;14.77;;;5.10;99.90;;;;;;5094685;28;20403;-77
2022/01/19 11:20:49;;;;;;;37.57;17.97;;;5.20;99.90;;;;;;5075771;28;20442;-75
2022/01/19 11:23:33;;;;;;;25.87;15.80;;;5.20;99.90;;;;;;5094633;28;20932;-75
2022/01/19 11:26:00;;;;;;;32.10;14.90;;;5.20;99.90;;;;;;5094629;28;20391;-74
2022/01/19 11:28:34;;;;;;;29.60;14.03;;;5.20;99.90;;;;;;5093785;28;20397;-74
2022/01/19 11:31:08;;;;;;;45.57;17.57;;;5.20;99.90;;;;;;5076228;28;20439;-73
2022/01/19 11:33:45;;;;;;;28.10;14.50;;;5.20;99.90;;;;;;5094202;28;20426;-75
2022/01/19 11:36:26;;;;;;;38.10;15.70;;;5.20;99.90;;;;;;5093845;28;20396;-74
2022/01/19 11:39:12;;;;;;;32.33;16.43;;;5.30;99.90;;;;;;5093448;28;20390;-73
2022/01/19 11:41:57;;;;;;;20.20;10.87;;;5.20;99.90;;;;;;5058662;28;20438;-73
2022/01/19 11:44:32;;;;;;;35.00;16.77;;;5.20;99.90;;;;;;5093874;28;20402;-73
2022/01/19 11:47:16;;;;;;;27.63;12.50;;;5.20;99.90;;;;;;5093714;28;20418;-74
2022/01/19 11:50:04;;;;;;;41.40;18.63;;;5.20;99.90;;;;;;5093301;28;20396;-75
2022/01/19 11:52:38;;;;;;;29.83;13.07;;;5.30;99.90;;;;;;5094087;28;20422;-73
2022/01/19 11:55:21;;;;;;;33.90;15.40;;;5.30;99.90;;;;;;5094080;28;20888;-73
2022/01/19 11:58:24;;;;;;;34.87;15.87;;;5.20;99.90;;;;;;5094022;28;20470;-75
2022/01/19 12:00:53;;;;;;;36.07;18.77;;;5.20;99.90;;;;;;5093046;28;20433;-75
2022/01/19 12:03:24;;;;;;;35.50;16.90;;;5.20;99.90;;;;;;5093792;28;20945;-75
2022/01/19 12:05:52;;;;;;;32.90;18.00;;;5.30;99.90;;;;;;5093518;28;20432;-74
2022/01/19 12:08:30;;;;;;;42.67;16.43;;;5.20;99.90;;;;;;5093700;28;20491;-75
2022/01/19 12:11:22;;;;;;;36.13;17.43;;;5.30;99.90;;;;;;5075559;28;20777;-75
2022/01/19 12:14:27;;;;;;;43.83;18.43;;;5.20;99.90;;;;;;5093836;28;20529;-74
2022/01/19 12:17:08;;;;;;;45.90;15.53;;;5.20;99.90;;;;;;5093685;28;20411;-73
2022/01/19 12:19:40;;;;;;;51.97;20.23;;;5.20;99.90;;;;;;5092580;28;20489;-74
2022/01/19 12:22:28;;;;;;;46.87;18.47;;;5.20;99.90;;;;;;5092969;28;20456;-74
2022/01/19 12:24:59;;;;;;;36.63;18.40;;;5.20;99.90;;;;;;5093481;28;20412;-74
2022/01/19 12:27:34;;;;;;;38.47;19.53;;;5.20;99.90;;;;;;5093570;28;20388;-75
2022/01/19 12:30:16;;;;;;;32.87;17.80;;;5.20;99.90;;;;;;5092556;28;20488;-74
2022/01/19 12:32:45;;;;;;;39.70;17.77;;;5.20;99.90;;;;;;5075158;28;20506;-75
2022/01/19 12:35:34;;;;;;;30.47;16.17;;;5.20;99.90;;;;;;5093530;28;20897;-72
2022/01/19 12:38:04;;;;;;;40.23;16.90;;;5.20;99.90;;;;;;5093560;28;20799;-74
2022/01/19 12:40:40;;;;;;;39.60;18.30;;;5.20;99.90;;;;;;5092029;28;20430;-75
2022/01/19 12:43:09;;;;;;;36.83;17.20;;;5.20;99.90;;;;;;5093118;28;20445;-75
2022/01/19 12:45:55;;;;;;;37.87;16.30;;;5.20;99.90;;;;;;5092889;28;20477;-75
2022/01/19 12:48:36;;;;;;;26.20;15.17;;;5.20;99.90;;;;;;5092554;28;20600;-77
2022/01/19 12:51:02;;;;;;;32.80;14.90;;;5.20;99.90;;;;;;5093033;28;20407;-75
2022/01/19 12:53:28;;;;;;;21.73;12.27;;;5.30;99.90;;;;;;5093276;28;20401;-76
2022/01/19 12:55:59;;;;;;;32.73;14.60;;;5.30;99.90;;;;;;5093213;28;20905;-74
2022/01/19 12:58:32;;;;;;;22.47;12.60;;;5.30;99.90;;;;;;5092255;28;20205;-75
2022/01/19 13:01:00;;;;;;;41.90;17.17;;;5.30;99.90;;;;;;5092978;28;20422;-75
2022/01/19 13:03:40;;;;;;;36.83;17.47;;;5.20;99.90;;;;;;5074907;28;20457;-74
2022/01/19 13:06:13;;;;;;;34.17;16.60;;;5.20;99.90;;;;;;5092923;28;20459;-75
2022/01/19 13:09:09;;;;;;;29.77;15.33;;;5.30;99.90;;;;;;5073963;28;20432;-74
2022/01/19 13:11:42;;;;;;;50.37;16.87;;;5.20;99.90;;;;;;5092982;28;20419;-75
2022/01/19 13:14:10;;;;;;;28.67;16.33;;;5.20;99.90;;;;;;5092914;28;20403;-75
2022/01/19 13:16:45;;;;;;;27.70;15.43;;;5.30;99.90;;;;;;5092615;28;20432;-76
2022/01/19 13:19:18;;;;;;;35.67;17.10;;;5.30;99.90;;;;;;5091763;28;20463;-75
2022/01/19 13:21:47;;;;;;;32.30;15.40;;;5.20;99.90;;;;;;5092728;28;20436;-74
2022/01/19 13:24:27;;;;;;;33.57;17.50;;;5.30;99.90;;;;;;5092727;28;20476;-76
2022/01/19 13:26:59;;;;;;;31.27;17.87;;;5.30;99.90;;;;;;5092739;28;20434;-75
2022/01/19 13:29:40;;;;;;;37.03;18.03;;;5.30;99.90;;;;;;5091870;28;20411;-76
2022/01/19 13:32:19;;;;;;;41.20;15.90;;;5.30;99.90;;;;;;5092732;28;20429;-75
2022/01/19 13:34:57;;;;;;;45.97;18.20;;;5.20;99.90;;;;;;5092370;28;20406;-75
2022/01/19 13:37:33;;;;;;;40.10;19.90;;;5.10;99.90;;;;;;5092633;28;20411;-75
2022/01/19 13:40:04;;;;;;;52.97;19.07;;;5.10;99.90;;;;;;5073749;28;20419;-75
2022/01/19 13:42:41;;;;;;;41.23;17.50;;;5.10;99.90;;;;;;5092727;28;20454;-75
2022/01/19 13:45:18;;;;;;;38.57;18.40;;;5.10;99.90;;;;;;5074566;28;20435;-75
2022/01/19 13:50:48;;;;;;;44.20;19.07;;;5.00;99.90;;;;;;5086828;28;20458;-75
2022/01/19 13:53:15;;;;;;;31.67;18.10;;;4.90;99.90;;;;;;5091862;28;20559;-74
2022/01/19 13:55:41;;;;;;;38.40;17.50;;;4.90;99.90;;;;;;5092484;28;20405;-74
2022/01/19 13:58:12;;;;;;;30.20;17.43;;;5.00;99.90;;;;;;5093842;28;20772;-73
2022/01/19 14:00:52;;;;;;;38.07;18.27;;;5.00;99.90;;;;;;5095477;28;20193;-73
2022/01/19 14:03:21;;;;;;;38.97;18.50;;;5.20;99.90;;;;;;5096107;28;20937;-74
2022/01/19 14:05:51;;;;;;;30.80;15.23;;;5.30;99.90;;;;;;5096226;28;20917;-73
2022/01/19 14:08:32;;;;;;;36.80;18.93;;;5.30;99.90;;;;;;5096035;28;20766;-73
2022/01/19 14:10:58;;;;;;;33.57;16.40;;;5.30;99.90;;;;;;5095478;28;20427;-72
2022/01/19 14:13:28;;;;;;;31.53;18.17;;;5.10;99.90;;;;;;5095758;28;20413;-72
2022/01/19 14:15:56;;;;;;;35.67;15.40;;;5.00;99.90;;;;;;5096065;28;20402;-73
2022/01/19 14:18:22;;;;;;;22.17;11.67;;;5.00;99.90;;;;;;5078002;28;20415;-75
2022/01/19 14:21:07;;;;;;;31.67;17.00;;;4.90;99.90;;;;;;5095082;28;20429;-73
2022/01/19 14:23:34;;;;;;;30.87;17.43;;;4.80;99.90;;;;;;5095658;28;20215;-74
2022/01/19 14:26:10;;;;;;;38.97;17.47;;;4.80;99.90;;;;;;5095837;28;20483;-72
2022/01/19 14:28:37;;;;;;;31.00;16.30;;;4.80;99.90;;;;;;5094965;28;20402;-73
2022/01/19 14:31:05;;;;;;;25.10;10.80;;;4.70;99.90;;;;;;5094996;28;20417;-72